createdAt,value
2018-03-27T00:02:15.319Z,72.88
2018-03-27T00:04:42.925Z,72.84
2018-03-27T00:07:10.560Z,72.86
2018-03-27T00:09:38.173Z,72.86
2018-03-27T00:12:05.804Z,72.93
2018-03-27T00:14:33.416Z,73.05
2018-03-27T00:17:01.147Z,73.14
2018-03-27T00:19:28.760Z,73.20
2018-03-27T00:21:56.396Z,73.25
2018-03-27T00:24:24.028Z,73.40
2018-03-27T00:27:00.316Z,73.59
2018-03-27T00:29:39.780Z,73.79
2018-03-27T00:32:19.281Z,73.89
2018-03-27T00:34:58.748Z,73.65
2018-03-27T00:37:38.261Z,73.45
2018-03-27T00:40:17.798Z,73.50
2018-03-27T00:42:50.889Z,73.48
2018-03-27T00:45:18.552Z,73.46
2018-03-27T00:47:46.189Z,73.39
2018-03-27T00:50:13.809Z,73.54
2018-03-27T00:52:41.436Z,73.77
2018-03-27T00:55:09.072Z,73.78
2018-03-27T00:57:36.683Z,73.96
2018-03-27T01:00:04.317Z,74.06
2018-03-27T01:02:31.928Z,74.01
2018-03-27T01:05:05.004Z,74.10
2018-03-27T01:07:32.631Z,74.14
2018-03-27T01:10:00.266Z,74.18
2018-03-27T01:12:27.877Z,74.28
2018-03-27T01:14:55.508Z,74.29
2018-03-27T01:17:23.187Z,74.23
2018-03-27T01:19:50.820Z,74.29
2018-03-27T01:22:18.510Z,74.38
2018-03-27T01:24:46.144Z,74.27
2018-03-27T01:27:13.761Z,74.25
2018-03-27T01:29:41.392Z,74.18
2018-03-27T01:32:08.995Z,74.15
2018-03-27T01:34:36.624Z,74.22
2018-03-27T01:37:04.279Z,74.08
2018-03-27T01:39:31.915Z,74.08
2018-03-27T01:41:59.529Z,74.01
2018-03-27T01:44:27.272Z,73.86
2018-03-27T01:46:54.879Z,73.82
2018-03-27T01:49:22.515Z,73.85
2018-03-27T01:51:50.121Z,73.97
2018-03-27T01:54:17.760Z,74.17
2018-03-27T01:56:45.484Z,74.35
2018-03-27T01:59:13.112Z,74.51
2018-03-27T02:01:40.803Z,74.68
2018-03-27T02:04:08.436Z,74.73
2018-03-27T02:06:36.049Z,74.90
2018-03-27T02:09:03.796Z,75.01
2018-03-27T02:11:37.032Z,75.07
2018-03-27T02:14:10.235Z,75.03
2018-03-27T02:16:43.528Z,75.07
2018-03-27T02:19:16.778Z,75.03
2018-03-27T02:21:43.825Z,75.00
2018-03-27T02:24:16.032Z,75.02
2018-03-27T02:26:43.644Z,74.99
2018-03-27T02:29:11.275Z,75.15
2018-03-27T02:31:38.891Z,75.28
2018-03-27T02:34:06.639Z,75.36
2018-03-27T02:36:34.253Z,75.33
2018-03-27T02:39:01.970Z,75.33
2018-03-27T02:41:29.581Z,75.34
2018-03-27T02:43:57.193Z,75.26
2018-03-27T02:46:24.847Z,75.23
2018-03-27T02:48:52.457Z,75.25
2018-03-27T02:51:20.092Z,75.06
2018-03-27T02:53:47.702Z,75.22
2018-03-27T02:56:15.406Z,75.16
2018-03-27T03:01:09.945Z,75.07
2018-03-27T03:03:37.561Z,75.03
2018-03-27T03:06:05.197Z,74.99
2018-03-27T03:08:32.900Z,74.99
2018-03-27T03:11:00.527Z,75.05
2018-03-27T03:13:28.140Z,75.14
2018-03-27T03:15:55.774Z,75.15
2018-03-27T03:18:23.384Z,75.28
2018-03-27T03:20:51.020Z,75.36
2018-03-27T03:23:18.637Z,75.50
2018-03-27T03:25:46.276Z,75.50
2018-03-27T03:28:13.938Z,75.50
2018-03-27T03:30:41.552Z,75.61
2018-03-27T03:33:09.215Z,75.53
2018-03-27T03:35:36.856Z,75.54
2018-03-27T03:38:04.477Z,75.60
2018-03-27T03:40:32.204Z,75.63
2018-03-27T03:42:59.812Z,75.66
2018-03-27T03:45:27.524Z,75.61
2018-03-27T03:47:55.161Z,75.46
2018-03-27T03:50:22.793Z,75.37
2018-03-27T03:52:50.414Z,75.42
2018-03-27T03:55:18.048Z,75.43
2018-03-27T03:57:45.664Z,75.48
2018-03-27T04:00:13.300Z,75.51
2018-03-27T04:02:40.913Z,75.42
2018-03-27T04:05:08.545Z,75.45
2018-03-27T04:07:36.160Z,75.43
2018-03-27T04:10:03.843Z,75.41
2018-03-27T04:12:31.528Z,75.57
2018-03-27T04:14:59.280Z,75.23
2018-03-27T04:17:26.884Z,75.06
2018-03-27T04:19:54.651Z,75.01
2018-03-27T04:22:22.232Z,74.85
2018-03-27T04:24:49.933Z,74.93
2018-03-27T04:27:17.575Z,74.93
2018-03-27T04:29:45.184Z,74.94
2018-03-27T04:32:12.819Z,74.88
2018-03-27T04:34:40.428Z,74.84
2018-03-27T04:37:08.064Z,74.79
2018-03-27T04:39:35.668Z,74.75
2018-03-27T04:42:03.301Z,74.61
2018-03-27T04:44:30.908Z,74.57
2018-03-27T04:46:58.540Z,74.47
2018-03-27T04:49:26.144Z,74.36
2018-03-27T04:51:53.776Z,74.34
2018-03-27T04:54:21.467Z,74.15
2018-03-27T04:56:49.095Z,74.03
2018-03-27T04:59:16.700Z,74.01
2018-03-27T05:01:44.332Z,73.95
2018-03-27T05:04:12.016Z,74.12
2018-03-27T05:06:39.677Z,73.60
2018-03-27T05:09:07.341Z,73.40
2018-03-27T05:11:34.976Z,73.33
2018-03-27T05:14:02.593Z,73.24
2018-03-27T05:16:30.331Z,73.29
2018-03-27T05:18:57.992Z,73.25
2018-03-27T05:21:25.654Z,73.23
2018-03-27T05:23:53.320Z,73.15
2018-03-27T05:26:20.990Z,73.22
2018-03-27T05:28:48.604Z,73.29
2018-03-27T05:31:16.239Z,73.33
2018-03-27T05:33:43.852Z,73.49
2018-03-27T05:36:11.493Z,73.57
2018-03-27T05:38:39.215Z,73.69
2018-03-27T05:41:06.956Z,73.81
2018-03-27T05:43:35.144Z,73.90
2018-03-27T05:46:02.896Z,73.85
2018-03-27T05:48:30.560Z,73.86
2018-03-27T05:50:58.198Z,73.70
2018-03-27T05:53:25.892Z,73.67
2018-03-27T05:55:53.608Z,73.73
2018-03-27T05:58:21.224Z,73.68
2018-03-27T06:00:48.852Z,73.59
2018-03-27T06:03:16.468Z,73.61
2018-03-27T06:05:44.084Z,73.58
2018-03-27T06:08:11.837Z,73.58
2018-03-27T06:10:39.504Z,73.60
2018-03-27T06:13:07.187Z,73.62
2018-03-27T06:15:34.804Z,73.55
2018-03-27T06:18:02.440Z,73.48
2018-03-27T06:20:30.056Z,73.50
2018-03-27T06:22:57.689Z,73.43
2018-03-27T06:25:25.404Z,73.37
2018-03-27T06:27:53.164Z,73.34
2018-03-27T06:30:20.771Z,73.34
2018-03-27T06:32:48.496Z,73.42
2018-03-27T06:35:16.099Z,73.36
2018-03-27T06:37:43.736Z,73.28
2018-03-27T06:40:12.906Z,73.22
2018-03-27T06:42:40.581Z,73.18
2018-03-27T06:45:08.205Z,73.17
2018-03-27T06:47:35.839Z,73.18
2018-03-27T06:50:03.481Z,73.11
2018-03-27T06:52:31.112Z,73.11
2018-03-27T06:54:58.796Z,73.12
2018-03-27T06:57:26.457Z,73.09
2018-03-27T06:59:54.074Z,72.83
2018-03-27T07:02:21.779Z,72.66
2018-03-27T07:04:49.439Z,72.40
2018-03-27T07:07:17.093Z,72.16
2018-03-27T07:09:44.764Z,71.90
2018-03-27T07:12:12.400Z,71.41
2018-03-27T07:14:40.012Z,71.17
2018-03-27T07:17:07.641Z,71.16
2018-03-27T07:19:35.339Z,71.17
2018-03-27T07:22:03.088Z,71.00
2018-03-27T07:24:30.746Z,70.80
2018-03-27T07:26:58.444Z,70.70
2018-03-27T07:29:26.068Z,70.61
2018-03-27T07:31:53.700Z,70.42
2018-03-27T07:34:21.492Z,70.14
2018-03-27T07:36:49.157Z,69.86
2018-03-27T07:39:16.829Z,69.29
2018-03-27T07:41:44.464Z,69.38
2018-03-27T07:44:12.072Z,68.96
2018-03-27T07:46:39.684Z,68.63
2018-03-27T07:49:07.316Z,68.55
2018-03-27T07:51:35.052Z,68.54
2018-03-27T07:54:02.706Z,68.10
2018-03-27T07:56:30.311Z,67.76
2018-03-27T07:58:57.944Z,67.56
2018-03-27T08:01:25.576Z,67.24
2018-03-27T08:03:53.211Z,67.27
2018-03-27T08:06:20.909Z,67.12
2018-03-27T08:08:48.544Z,66.81
2018-03-27T08:11:16.292Z,66.39
2018-03-27T08:13:44.061Z,65.78
2018-03-27T08:16:11.665Z,65.79
2018-03-27T08:18:39.291Z,65.46
2018-03-27T08:21:06.891Z,64.69
2018-03-27T08:23:34.543Z,64.13
2018-03-27T08:26:02.205Z,63.47
2018-03-27T08:28:29.840Z,63.63
2018-03-27T08:30:57.539Z,63.68
2018-03-27T08:33:25.205Z,63.43
2018-03-27T08:35:52.815Z,63.18
2018-03-27T08:38:20.450Z,62.87
2018-03-27T08:40:48.056Z,62.69
2018-03-27T08:43:15.754Z,62.19
2018-03-27T08:45:43.406Z,61.26
2018-03-27T08:48:11.081Z,61.02
2018-03-27T08:50:38.688Z,60.45
2018-03-27T08:53:06.324Z,59.71
2018-03-27T08:55:33.931Z,59.37
2018-03-27T08:58:01.568Z,59.37
2018-03-27T09:00:29.185Z,58.44
2018-03-27T09:02:56.821Z,58.72
2018-03-27T09:05:24.530Z,58.81
2018-03-27T09:07:52.167Z,58.26
2018-03-27T09:10:19.779Z,57.66
2018-03-27T09:12:47.412Z,56.21
2018-03-27T09:15:15.071Z,55.46
2018-03-27T09:17:42.824Z,55.86
2018-03-27T09:20:10.440Z,56.12
2018-03-27T09:22:38.128Z,55.47
2018-03-27T09:25:05.820Z,54.35
2018-03-27T09:27:33.441Z,53.59
2018-03-27T09:30:01.100Z,53.67
2018-03-27T09:32:28.800Z,53.59
2018-03-27T09:34:56.566Z,53.86
2018-03-27T09:37:24.196Z,53.74
2018-03-27T09:39:51.892Z,53.48
2018-03-27T09:42:19.553Z,53.08
2018-03-27T09:44:47.192Z,53.02
2018-03-27T09:47:15.583Z,53.13
2018-03-27T09:49:43.868Z,53.43
2018-03-27T09:52:11.484Z,53.50
2018-03-27T09:54:39.196Z,52.76
2018-03-27T09:57:06.816Z,53.10
2018-03-27T09:59:34.453Z,53.38
2018-03-27T10:02:02.063Z,53.60
2018-03-27T10:04:29.784Z,53.75
2018-03-27T10:06:57.392Z,54.06
2018-03-27T10:09:25.065Z,54.48
2018-03-27T10:11:52.676Z,54.76
2018-03-27T10:14:20.313Z,54.90
2018-03-27T10:16:47.920Z,54.68
2018-03-27T10:19:15.557Z,54.11
2018-03-27T10:21:43.173Z,54.02
2018-03-27T10:24:10.808Z,53.74
2018-03-27T10:26:38.421Z,53.00
2018-03-27T10:29:06.125Z,52.69
2018-03-27T10:31:33.745Z,52.47
2018-03-27T10:34:01.385Z,52.50
2018-03-27T10:36:29.003Z,51.87
2018-03-27T10:38:56.639Z,51.37
2018-03-27T10:41:24.247Z,51.35
2018-03-27T10:43:51.888Z,50.87
2018-03-27T10:46:19.499Z,51.10
2018-03-27T10:48:47.169Z,50.90
2018-03-27T10:51:14.828Z,50.81
2018-03-27T10:53:42.464Z,50.34
2018-03-27T10:56:10.077Z,50.32
2018-03-27T10:58:37.879Z,50.22
2018-03-27T11:01:05.497Z,50.31
2018-03-27T11:03:33.136Z,50.15
2018-03-27T11:06:00.752Z,49.90
2018-03-27T11:08:28.468Z,49.68
2018-03-27T11:10:56.128Z,49.61
2018-03-27T11:13:23.787Z,49.62
2018-03-27T11:15:51.455Z,49.70
2018-03-27T11:18:19.124Z,49.58
2018-03-27T11:20:46.765Z,49.45
2018-03-27T11:23:14.374Z,49.33
2018-03-27T11:25:42.015Z,49.59
2018-03-27T11:28:09.624Z,49.36
2018-03-27T11:30:37.266Z,49.73
2018-03-27T11:33:04.881Z,49.40
2018-03-27T11:35:32.547Z,49.93
2018-03-27T11:38:00.804Z,50.09
2018-03-27T11:40:28.441Z,50.14
2018-03-27T11:42:56.153Z,49.96
2018-03-27T11:45:23.816Z,49.50
2018-03-27T11:47:51.433Z,49.28
2018-03-27T11:50:19.145Z,49.65
2018-03-27T11:52:46.760Z,49.92
2018-03-27T11:55:14.404Z,49.87
2018-03-27T11:57:42.021Z,49.56
2018-03-27T12:00:10.160Z,49.63
2018-03-27T12:02:37.868Z,49.57
2018-03-27T12:05:05.504Z,49.47
2018-03-27T12:07:33.196Z,49.21
2018-03-27T12:10:00.844Z,49.12
2018-03-27T12:12:28.523Z,48.96
2018-03-27T12:14:56.180Z,49.00
2018-03-27T12:17:23.939Z,48.66
2018-03-27T12:19:51.576Z,48.36
2018-03-27T12:22:19.213Z,48.09
2018-03-27T12:24:46.847Z,48.53
2018-03-27T12:27:14.456Z,48.17
2018-03-27T12:29:42.149Z,47.16
2018-03-27T12:32:09.756Z,47.35
2018-03-27T12:34:37.394Z,47.35
2018-03-27T12:37:05.005Z,47.39
2018-03-27T12:39:32.631Z,47.38
2018-03-27T12:42:00.243Z,47.18
2018-03-27T12:44:27.856Z,46.72
2018-03-27T12:46:55.492Z,46.47
2018-03-27T12:49:23.113Z,46.55
2018-03-27T12:51:50.768Z,46.54
2018-03-27T12:54:18.472Z,46.74
2018-03-27T12:56:46.106Z,46.79
2018-03-27T12:59:13.731Z,47.00
2018-03-27T13:01:41.372Z,47.37
2018-03-27T13:04:09.017Z,47.69
2018-03-27T13:06:36.648Z,47.78
2018-03-27T13:09:04.348Z,47.90
2018-03-27T13:11:31.975Z,48.03
2018-03-27T13:13:59.585Z,48.41
2018-03-27T13:16:27.229Z,49.07
2018-03-27T13:18:54.956Z,49.95
2018-03-27T13:21:22.748Z,50.88
2018-03-27T13:23:50.423Z,51.88
2018-03-27T13:26:18.290Z,52.69
2018-03-27T13:28:45.960Z,53.66
2018-03-27T13:31:13.632Z,54.22
2018-03-27T13:33:41.280Z,54.53
2018-03-27T13:36:08.944Z,55.49
2018-03-27T13:38:36.614Z,55.33
2018-03-27T13:41:04.580Z,56.01
2018-03-27T13:43:32.335Z,56.93
2018-03-27T13:45:59.968Z,57.12
2018-03-27T13:48:27.568Z,59.13
2018-03-27T13:50:55.505Z,60.02
2018-03-27T13:53:23.136Z,60.77
2018-03-27T13:55:50.755Z,58.90
2018-03-27T13:58:18.521Z,58.73
2018-03-27T14:00:46.148Z,59.27
2018-03-27T14:03:13.847Z,59.34
2018-03-27T14:05:41.613Z,57.26
2018-03-27T14:08:09.223Z,56.51
2018-03-27T14:10:36.844Z,54.26
2018-03-27T14:13:04.500Z,53.02
2018-03-27T14:15:32.164Z,53.18
2018-03-27T14:17:59.985Z,52.50
2018-03-27T14:20:27.612Z,52.33
2018-03-27T14:22:55.256Z,52.25
2018-03-27T14:25:22.900Z,52.11
2018-03-27T14:27:50.542Z,51.87
2018-03-27T14:30:18.149Z,52.04
2018-03-27T14:32:46.106Z,51.47
2018-03-27T14:35:13.828Z,51.88
2018-03-27T14:37:41.534Z,51.41
2018-03-27T14:40:09.176Z,51.20
2018-03-27T14:42:36.808Z,51.87
2018-03-27T14:45:04.425Z,51.58
2018-03-27T14:47:32.056Z,51.32
2018-03-27T14:49:59.749Z,51.14
2018-03-27T14:52:27.378Z,51.14
2018-03-27T14:54:55.076Z,50.58
2018-03-27T14:57:22.735Z,50.05
2018-03-27T14:59:50.413Z,51.04
2018-03-27T15:02:18.058Z,50.54
2018-03-27T15:04:45.663Z,50.48
2018-03-27T15:07:13.392Z,51.88
2018-03-27T15:09:41.016Z,52.76
2018-03-27T15:12:08.717Z,53.00
2018-03-27T15:14:36.332Z,51.87
2018-03-27T15:17:04.046Z,51.69
2018-03-27T15:19:31.698Z,51.18
2018-03-27T15:21:59.327Z,50.50
2018-03-27T15:24:26.941Z,51.56
2018-03-27T15:26:54.846Z,51.78
2018-03-27T15:29:22.540Z,51.83
2018-03-27T15:31:50.276Z,51.71
2018-03-27T15:34:17.884Z,52.96
2018-03-27T15:36:45.645Z,53.08
2018-03-27T15:39:13.252Z,53.26
2018-03-27T15:41:40.884Z,53.23
2018-03-27T15:44:08.521Z,54.08
2018-03-27T15:46:36.175Z,54.49
2018-03-27T15:49:03.780Z,54.73
2018-03-27T15:51:31.407Z,54.78
2018-03-27T15:53:59.020Z,54.95
2018-03-27T15:56:26.648Z,55.48
2018-03-27T15:58:54.258Z,55.94
2018-03-27T16:01:21.891Z,56.77
2018-03-27T16:03:49.552Z,56.99
2018-03-27T16:06:17.196Z,57.28
2018-03-27T16:08:44.828Z,57.52
2018-03-27T16:11:12.449Z,58.70
2018-03-27T16:13:40.075Z,58.79
2018-03-27T16:16:08.048Z,58.12
2018-03-27T16:18:35.672Z,57.83
2018-03-27T16:21:03.290Z,59.11
2018-03-27T16:23:30.929Z,59.00
2018-03-27T16:25:58.573Z,58.44
2018-03-27T16:28:26.271Z,57.82
2018-03-27T16:30:53.877Z,56.81
2018-03-27T16:33:21.504Z,55.98
2018-03-27T16:35:49.109Z,54.64
2018-03-27T16:38:16.809Z,54.44
2018-03-27T16:40:44.466Z,54.29
2018-03-27T16:43:12.092Z,54.35
2018-03-27T16:45:39.798Z,53.89
2018-03-27T16:48:07.667Z,53.35
2018-03-27T16:50:36.557Z,53.66
2018-03-27T16:53:04.188Z,53.88
2018-03-27T16:55:31.787Z,54.43
2018-03-27T16:57:59.416Z,55.18
2018-03-27T17:00:27.027Z,55.12
2018-03-27T17:02:54.657Z,54.98
2018-03-27T17:05:22.324Z,55.26
2018-03-27T17:07:49.988Z,55.66
2018-03-27T17:10:17.658Z,56.01
2018-03-27T17:12:45.300Z,56.30
2018-03-27T17:15:12.976Z,56.91
2018-03-27T17:17:40.603Z,56.69
2018-03-27T17:20:08.224Z,56.58
2018-03-27T17:22:35.869Z,56.58
2018-03-27T17:25:03.529Z,56.80
2018-03-27T17:27:31.287Z,56.95
2018-03-27T17:29:59.564Z,57.13
2018-03-27T17:32:27.334Z,57.00
2018-03-27T17:34:54.972Z,57.24
2018-03-27T17:37:22.665Z,57.33
2018-03-27T17:39:50.278Z,57.50
2018-03-27T17:42:18.047Z,57.58
2018-03-27T17:44:45.648Z,57.65
2018-03-27T17:47:13.257Z,57.48
2018-03-27T17:49:40.971Z,57.36
2018-03-27T17:52:08.693Z,57.29
2018-03-27T17:54:36.504Z,57.26
2018-03-27T17:57:04.104Z,57.38
2018-03-27T17:59:31.733Z,57.35
2018-03-27T18:01:59.385Z,57.50
2018-03-27T18:04:27.047Z,57.60
2018-03-27T18:06:54.656Z,57.90
2018-03-27T18:09:22.670Z,57.98
2018-03-27T18:11:50.492Z,57.99
2018-03-27T18:14:18.123Z,58.18
2018-03-27T18:16:45.771Z,58.28
2018-03-27T18:19:13.535Z,58.46
2018-03-27T18:21:41.145Z,58.62
2018-03-27T18:24:08.872Z,58.67
2018-03-27T18:26:36.480Z,58.83
2018-03-27T18:29:04.112Z,59.17
2018-03-27T18:31:31.851Z,59.37
2018-03-27T18:33:59.480Z,59.65
2018-03-27T18:36:27.179Z,59.68
2018-03-27T18:38:54.860Z,59.56
2018-03-27T18:41:22.468Z,59.85
2018-03-27T18:43:50.116Z,60.13
2018-03-27T18:46:17.825Z,60.20
2018-03-27T18:48:45.468Z,60.24
2018-03-27T18:51:13.152Z,60.33
2018-03-27T18:53:40.920Z,60.42
2018-03-27T18:56:08.589Z,60.31
2018-03-27T18:58:36.404Z,60.00
2018-03-27T19:01:04.349Z,59.92
2018-03-27T19:03:32.079Z,59.88
2018-03-27T19:05:59.687Z,59.67
2018-03-27T19:08:27.320Z,59.37
2018-03-27T19:10:54.928Z,59.25
2018-03-27T19:13:22.561Z,59.26
2018-03-27T19:15:50.178Z,59.03
2018-03-27T19:18:17.788Z,58.84
2018-03-27T19:20:45.516Z,58.64
2018-03-27T19:23:13.221Z,58.60
2018-03-27T19:25:40.778Z,58.61
2018-03-27T19:28:08.383Z,58.57
2018-03-27T19:30:36.068Z,58.65
2018-03-27T19:33:03.680Z,58.67
2018-03-27T19:35:31.316Z,58.59
2018-03-27T19:37:58.951Z,58.67
2018-03-27T19:40:26.585Z,58.64
2018-03-27T19:42:54.204Z,58.57
2018-03-27T19:45:21.867Z,58.64
2018-03-27T19:47:49.504Z,58.82
2018-03-27T19:50:17.137Z,58.71
2018-03-27T19:52:44.792Z,58.78
2018-03-27T19:55:12.564Z,58.79
2018-03-27T19:57:40.175Z,58.86
2018-03-27T20:00:07.808Z,58.94
2018-03-27T20:02:35.683Z,59.02
2018-03-27T20:05:03.532Z,59.20
2018-03-27T20:07:31.145Z,59.38
2018-03-27T20:09:58.872Z,59.47
2018-03-27T20:12:26.545Z,59.59
2018-03-27T20:14:54.205Z,59.70
2018-03-27T20:17:21.859Z,59.78
2018-03-27T20:19:49.536Z,59.81
2018-03-27T20:22:17.144Z,59.91
2018-03-27T20:24:44.853Z,59.90
2018-03-27T20:27:12.459Z,59.83
2018-03-27T20:29:40.176Z,59.95
2018-03-27T20:32:07.784Z,60.02
2018-03-27T20:34:35.504Z,60.07
2018-03-27T20:37:03.160Z,59.85
2018-03-27T20:39:30.796Z,59.90
2018-03-27T20:41:58.414Z,59.90
2018-03-27T20:44:26.053Z,59.83
2018-03-27T20:46:53.662Z,59.83
2018-03-27T20:49:21.288Z,59.92
2018-03-27T20:51:48.896Z,59.85
2018-03-27T20:54:16.604Z,59.97
2018-03-27T20:56:44.208Z,59.94
2018-03-27T20:59:11.829Z,59.79
2018-03-27T21:01:39.483Z,59.64
2018-03-27T21:04:07.148Z,59.63
2018-03-27T21:06:34.808Z,59.65
2018-03-27T21:09:02.413Z,59.57
2018-03-27T21:11:30.044Z,59.57
2018-03-27T21:13:57.649Z,59.55
2018-03-27T21:16:25.355Z,59.62
2018-03-27T21:18:53.020Z,59.58
2018-03-27T21:21:20.651Z,59.65
2018-03-27T21:23:48.252Z,59.65
2018-03-27T21:26:15.876Z,59.72
2018-03-27T21:28:43.480Z,59.64
2018-03-27T21:31:11.113Z,59.68
2018-03-27T21:33:38.893Z,59.72
2018-03-27T21:36:06.556Z,59.65
2018-03-27T21:38:34.160Z,59.67
2018-03-27T21:41:01.800Z,59.66
2018-03-27T21:43:29.399Z,59.71
2018-03-27T21:45:57.031Z,59.70
2018-03-27T21:48:24.668Z,59.67
2018-03-27T21:50:52.292Z,59.62
2018-03-27T21:53:19.905Z,59.71
2018-03-27T21:55:47.533Z,59.62
2018-03-27T21:58:15.212Z,59.68
2018-03-27T22:00:42.849Z,59.75
2018-03-27T22:03:10.536Z,59.67
2018-03-27T22:05:38.200Z,59.66
2018-03-27T22:08:05.804Z,59.68
2018-03-27T22:10:39.364Z,59.63
2018-03-27T22:13:07.032Z,59.68
2018-03-27T22:15:34.687Z,59.73
2018-03-27T22:18:02.363Z,59.84
2018-03-27T22:20:30.001Z,59.84
2018-03-27T22:22:57.694Z,59.85
2018-03-27T22:25:25.339Z,59.82
2018-03-27T22:27:52.943Z,59.89
2018-03-27T22:30:20.669Z,59.91
2018-03-27T22:32:48.272Z,60.04
2018-03-27T22:35:15.991Z,60.06
2018-03-27T22:37:43.591Z,60.12
2018-03-27T22:40:11.212Z,59.97
2018-03-27T22:42:38.848Z,59.87
2018-03-27T22:45:06.456Z,59.94
2018-03-27T22:47:34.091Z,59.96
2018-03-27T22:50:01.764Z,59.84
2018-03-27T22:52:29.428Z,59.63
2018-03-27T22:54:57.100Z,59.47
2018-03-27T22:57:24.751Z,59.44
2018-03-27T22:59:52.413Z,59.44
2018-03-27T23:02:20.044Z,59.35
2018-03-27T23:04:47.741Z,59.35
2018-03-27T23:07:15.414Z,59.11
2018-03-27T23:09:43.064Z,59.25
2018-03-27T23:12:10.728Z,59.34
2018-03-27T23:14:38.393Z,59.24
2018-03-27T23:17:06.016Z,59.30
2018-03-27T23:19:33.716Z,59.28
2018-03-27T23:22:01.382Z,59.31
2018-03-27T23:24:29.040Z,59.42
2018-03-27T23:26:56.704Z,59.35
2018-03-27T23:29:24.312Z,59.36
2018-03-27T23:31:51.941Z,59.36
2018-03-27T23:34:19.544Z,59.42
2018-03-27T23:36:47.168Z,59.39
2018-03-27T23:39:14.772Z,59.31
2018-03-27T23:41:42.400Z,59.22
2018-03-27T23:44:10.010Z,58.99
2018-03-27T23:46:37.633Z,59.13
2018-03-27T23:49:05.240Z,59.17
2018-03-27T23:51:32.920Z,59.09
2018-03-27T23:54:00.524Z,59.11
2018-03-27T23:56:28.248Z,58.80
2018-03-27T23:58:55.895Z,58.94
